Time;durP1;ratioP1;P1;durP2;ratioP2;P2;SDS_P1;SDS_P2;PMS_P1;PMS_P2;Temp;Humidity;BMP_temperature;BMP_pressure;BME280_temperature;BME280_humidity;BME280_pressure;Samples;Min_cycle;Max_cycle;Signal;HPM_P1;HPM_P2
2021/07/22 00:02:25;;;;;;;;;18.00;13.75;;;;;23.69;46.76;101379.69;4974870;28;45251;-60
2021/07/22 00:04:50;;;;;;;;;15.25;13.25;;;;;23.69;47.62;101377.81;4974588;28;45979;-60
2021/07/22 00:07:16;;;;;;;;;15.00;13.50;;;;;23.68;47.22;101369.97;4974719;28;46010;-59
2021/07/22 00:09:41;;;;;;;;;14.50;14.00;;;;;23.66;47.99;101377.41;4973813;28;68274;-60
2021/07/22 00:12:10;;;;;;;;;17.25;15.75;;;;;23.65;48.46;101376.56;4973945;28;68751;-59
2021/07/22 00:14:35;;;;;;;;;21.00;16.00;;;;;23.59;48.42;101377.38;4974670;28;45386;-60
2021/07/22 00:17:04;;;;;;;;;19.25;16.25;;;;;23.53;49.00;101379.03;4974548;28;45300;-60
2021/07/22 00:19:30;;;;;;;;;15.75;14.25;;;;;23.47;49.87;101382.50;4974356;28;47371;-60
2021/07/22 00:21:56;;;;;;;;;16.00;14.50;;;;;23.38;49.44;101375.66;4974436;28;45387;-60
2021/07/22 00:24:21;;;;;;;;;14.00;11.25;;;;;23.30;50.22;101367.81;4974574;28;45998;-60
2021/07/22 00:26:46;;;;;;;;;18.50;14.50;;;;;23.23;49.63;101381.19;4973375;28;72180;-60
2021/07/22 00:29:12;;;;;;;;;16.75;14.00;;;;;23.14;50.28;101383.19;4973633;28;65540;-60
2021/07/22 00:31:37;;;;;;;;;15.25;14.00;;;;;23.06;50.42;101378.81;4973549;28;68385;-60
2021/07/22 00:34:02;;;;;;;;;18.00;14.50;;;;;23.00;50.41;101381.47;4973622;28;68321;-61
2021/07/22 00:36:28;;;;;;;;;17.75;14.25;;;;;22.89;49.94;101380.97;4973539;28;60106;-60
2021/07/22 00:38:53;;;;;;;;;16.00;15.00;;;;;22.84;50.34;101388.78;4973503;28;69316;-59
2021/07/22 00:41:18;;;;;;;;;20.50;18.00;;;;;22.77;50.68;101380.72;4974483;28;45291;-60
2021/07/22 00:43:44;;;;;;;;;13.00;13.00;;;;;22.70;51.06;101384.38;4973180;28;74882;-60
2021/07/22 00:46:09;;;;;;;;;19.00;15.00;;;;;22.62;50.85;101388.88;4973280;28;67425;-60
2021/07/22 00:48:35;;;;;;;;;16.50;15.75;;;;;22.56;51.01;101388.81;4974381;28;45285;-60
2021/07/22 00:51:00;;;;;;;;;14.75;14.00;;;;;22.45;51.29;101382.97;4974338;28;45471;-60
2021/07/22 00:53:26;;;;;;;;;15.50;14.25;;;;;22.38;51.42;101392.78;4973126;28;70200;-60
2021/07/22 00:55:51;;;;;;;;;18.00;16.50;;;;;22.31;51.50;101384.69;4973020;28;72325;-59
2021/07/22 00:58:16;;;;;;;;;20.25;16.25;;;;;22.26;51.61;101387.09;4973377;28;64568;-59
2021/07/22 01:00:42;;;;;;;;;18.50;13.75;;;;;22.20;51.59;101387.91;4974112;28;45516;-59
2021/07/22 01:03:07;;;;;;;;;15.75;13.25;;;;;22.14;52.32;101383.31;4973043;28;73083;-60
2021/07/22 01:05:33;;;;;;;;;23.00;18.25;;;;;22.06;52.12;101382.41;4972905;28;69463;-60
2021/07/22 01:07:58;;;;;;;;;20.25;16.25;;;;;21.99;52.65;101376.19;4974029;28;45454;-60
2021/07/22 01:10:23;;;;;;;;;16.00;14.25;;;;;21.94;52.90;101373.25;4973955;28;45509;-59
2021/07/22 01:12:49;;;;;;;;;17.50;15.75;;;;;21.89;52.51;101373.84;4973254;28;58265;-59
2021/07/22 01:15:14;;;;;;;;;17.75;14.00;;;;;21.86;52.69;101379.56;4972846;28;72428;-60
2021/07/22 01:17:44;;;;;;;;;19.25;17.00;;;;;21.80;53.04;101383.00;4973852;28;45433;-60
2021/07/22 01:20:13;;;;;;;;;16.00;14.75;;;;;21.77;53.26;101376.16;4972620;28;45339;-60
2021/07/22 01:22:39;;;;;;;;;21.75;15.75;;;;;21.75;53.30;101378.19;4973204;28;46045;-61
2021/07/22 01:25:05;;;;;;;;;12.25;9.00;;;;;21.72;53.46;101383.94;4975156;27;54394;-61
2021/07/22 01:27:30;;;;;;;;;14.75;12.75;;;;;21.68;53.92;101381.81;4973960;28;45226;-60
2021/07/22 01:29:56;;;;;;;;;16.50;14.00;;;;;21.62;53.71;101383.44;4973765;28;45503;-60
2021/07/22 01:32:21;;;;;;;;;18.75;17.25;;;;;21.58;53.50;101372.22;4972969;28;74183;-60
2021/07/22 01:34:46;;;;;;;;;14.75;13.00;;;;;21.57;53.43;101377.78;4976364;28;51363;-60
2021/07/22 01:37:12;;;;;;;;;15.75;14.75;;;;;21.56;52.98;101370.78;4975843;28;58730;-60
2021/07/22 01:39:38;;;;;;;;;16.75;15.75;;;;;21.57;53.09;101373.25;4976403;28;45497;-59
2021/07/22 01:42:03;;;;;;;;;16.50;14.50;;;;;21.61;53.19;101377.19;4975966;28;51252;-59
2021/07/22 01:44:29;;;;;;;;;17.00;14.75;;;;;21.67;52.92;101370.31;4976493;28;45414;-60
2021/07/22 01:46:54;;;;;;;;;20.25;18.00;;;;;21.71;52.49;101374.28;4976188;28;45362;-59
2021/07/22 01:49:20;;;;;;;;;16.75;16.50;;;;;21.76;52.65;101371.81;4976296;28;45406;-60
2021/07/22 01:51:45;;;;;;;;;19.25;16.50;;;;;21.79;53.01;101374.13;4973832;28;73596;-60
2021/07/22 01:54:10;;;;;;;;;16.50;15.00;;;;;21.81;52.75;101365.06;4975432;28;64905;-60
2021/07/22 01:56:36;;;;;;;;;16.75;14.25;;;;;21.82;53.08;101366.75;4975208;28;68861;-61
2021/07/22 01:59:01;;;;;;;;;15.00;14.50;;;;;21.79;53.16;101366.09;4975192;28;68877;-62
2021/07/22 02:01:26;;;;;;;;;17.25;14.00;;;;;21.76;52.72;101368.34;4975225;28;65212;-62
2021/07/22 02:03:52;;;;;;;;;18.25;14.25;;;;;21.75;53.30;101370.16;4975112;28;66363;-61
2021/07/22 02:06:17;;;;;;;;;16.00;15.75;;;;;21.76;53.30;101363.00;4974967;28;68039;-61
2021/07/22 02:08:43;;;;;;;;;16.25;13.75;;;;;21.72;52.98;101367.91;4975092;28;68139;-62
2021/07/22 02:11:08;;;;;;;;;16.50;16.00;;;;;21.70;53.07;101366.41;4975951;28;45900;-61
2021/07/22 02:13:33;;;;;;;;;18.50;16.25;;;;;21.68;53.54;101363.94;4975916;28;45474;-61
2021/07/22 02:15:59;;;;;;;;;15.50;15.00;;;;;21.66;53.43;101371.34;4974867;28;68276;-61
2021/07/22 02:18:24;;;;;;;;;17.00;15.00;;;;;21.62;53.25;101372.72;4974982;28;69031;-61
2021/07/22 02:20:49;;;;;;;;;16.00;13.00;;;;;21.59;53.75;101367.72;4974723;28;70895;-61
2021/07/22 02:23:15;;;;;;;;;20.25;16.75;;;;;21.56;53.70;101370.78;4975708;28;45276;-61
2021/07/22 02:25:40;;;;;;;;;17.50;17.25;;;;;21.54;54.00;101370.94;4975762;28;45655;-61
2021/07/22 02:28:06;;;;;;;;;16.50;14.50;;;;;21.53;53.69;101368.47;4975760;28;45501;-61
2021/07/22 02:30:31;;;;;;;;;18.25;16.50;;;;;21.52;53.65;101372.97;4974727;28;70166;-60
2021/07/22 02:32:57;;;;;;;;;16.50;14.00;;;;;21.49;54.26;101363.50;4975675;28;45401;-61
2021/07/22 02:35:22;;;;;;;;;16.50;15.50;;;;;21.45;53.87;101362.22;4974472;28;45392;-60
2021/07/22 02:37:47;;;;;;;;;14.75;14.75;;;;;21.41;53.92;101376.97;4975822;28;45310;-61
2021/07/22 02:40:13;;;;;;;;;15.25;14.00;;;;;21.39;54.19;101378.19;4975527;28;51430;-61
2021/07/22 02:42:39;;;;;;;;;17.75;15.25;;;;;21.37;54.69;101381.03;4975726;28;45441;-61
2021/07/22 02:45:05;;;;;;;;;22.00;17.50;;;;;21.36;54.44;101374.03;4973727;28;67351;-61
2021/07/22 02:47:31;;;;;;;;;18.50;15.50;;;;;21.34;54.83;101376.06;4975588;28;45509;-61
2021/07/22 02:49:56;;;;;;;;;15.00;14.50;;;;;21.32;54.77;101378.09;4975599;28;46236;-61
2021/07/22 02:52:22;;;;;;;;;18.00;17.00;;;;;21.29;54.42;101379.31;4974684;28;73043;-61
2021/07/22 02:54:47;;;;;;;;;20.75;16.00;;;;;21.27;54.89;101375.16;4975756;28;45408;-61
2021/07/22 02:57:12;;;;;;;;;17.25;15.00;;;;;21.24;54.86;101380.88;4975778;28;45357;-60
2021/07/22 02:59:38;;;;;;;;;20.25;16.50;;;;;21.23;54.64;101379.22;4974771;28;70910;-60
2021/07/22 03:02:03;;;;;;;;;15.00;14.25;;;;;21.19;54.59;101376.94;4974538;28;73171;-61
2021/07/22 03:04:32;;;;;;;;;13.00;13.00;;;;;21.13;55.10;101371.50;4975740;28;45354;-60
2021/07/22 03:06:57;;;;;;;;;20.25;14.75;;;;;21.06;55.10;101376.75;4975636;28;45485;-61
2021/07/22 03:09:23;;;;;;;;;15.75;14.50;;;;;20.97;55.25;101373.34;4975458;28;45921;-61
2021/07/22 03:11:48;;;;;;;;;21.50;16.25;;;;;20.89;55.28;101376.13;4975506;28;45343;-61
2021/07/22 03:14:13;;;;;;;;;17.00;17.00;;;;;20.82;55.19;101376.00;4974615;28;66524;-60
2021/07/22 03:16:39;;;;;;;;;24.00;18.25;;;;;20.75;55.58;101370.56;4975362;28;45323;-61
2021/07/22 03:19:04;;;;;;;;;19.25;15.00;;;;;20.69;55.69;101373.09;4975181;28;45353;-61
2021/07/22 03:21:30;;;;;;;;;18.00;16.00;;;;;20.63;55.95;101371.19;4975061;28;45324;-61
2021/07/22 03:23:55;;;;;;;;;20.75;17.00;;;;;20.59;56.10;101370.72;4977483;28;45354;-61
2021/07/22 03:26:20;;;;;;;;;15.25;13.75;;;;;20.55;55.92;101375.59;4975374;28;45570;-61
2021/07/22 03:28:46;;;;;;;;;16.50;13.25;;;;;20.54;55.98;101383.78;4973998;28;75527;-61
2021/07/22 03:31:11;;;;;;;;;15.00;14.25;;;;;20.55;56.22;101380.94;4975153;28;45520;-60
2021/07/22 03:33:37;;;;;;;;;19.75;17.25;;;;;20.54;56.32;101376.59;4974271;28;68983;-61
2021/07/22 03:36:03;;;;;;;;;16.75;14.75;;;;;20.50;55.83;101369.97;4974337;28;70162;-61
2021/07/22 03:38:28;;;;;;;;;17.75;17.50;;;;;20.47;56.30;101365.00;4975046;28;45457;-60
2021/07/22 03:40:54;;;;;;;;;20.00;17.25;;;;;20.43;56.25;101366.38;4975076;28;45339;-61
2021/07/22 03:43:19;;;;;;;;;20.00;16.00;;;;;20.41;56.58;101371.06;4974470;28;59877;-60
2021/07/22 03:45:44;;;;;;;;;20.00;15.75;;;;;20.39;56.39;101373.06;4974122;28;67815;-61
2021/07/22 03:48:12;;;;;;;;;18.25;15.00;;;;;20.37;56.30;101369.75;4973874;28;75556;-60
2021/07/22 03:50:38;;;;;;;;;18.25;15.50;;;;;20.36;56.29;101365.44;4975025;28;45835;-61
2021/07/22 03:53:03;;;;;;;;;21.00;13.00;;;;;20.34;57.00;101362.97;4974851;28;46374;-60
2021/07/22 03:55:29;;;;;;;;;18.00;15.25;;;;;20.34;56.39;101368.28;4974070;28;55720;-60
2021/07/22 03:57:55;;;;;;;;;19.25;15.00;;;;;20.31;56.59;101361.47;4974896;28;45844;-60
2021/07/22 04:00:20;;;;;;;;;17.75;15.75;;;;;20.30;56.55;101369.66;4974659;28;47516;-61
2021/07/22 04:02:46;;;;;;;;;17.50;15.50;;;;;20.30;56.51;101370.47;4972776;28;69164;-61
2021/07/22 04:05:11;;;;;;;;;19.00;16.50;;;;;20.27;56.76;101365.50;4974690;28;45332;-61
2021/07/22 04:07:37;;;;;;;;;21.50;16.50;;;;;20.25;56.86;101370.19;4974571;28;45197;-60
2021/07/22 04:10:02;;;;;;;;;17.50;15.50;;;;;20.21;56.90;101374.22;4974456;28;50469;-60
2021/07/22 04:12:27;;;;;;;;;18.00;17.25;;;;;20.19;56.91;101378.09;4974803;28;45204;-60
2021/07/22 04:14:53;;;;;;;;;15.75;13.75;;;;;20.16;57.07;101368.59;4974289;28;56172;-61
2021/07/22 04:17:18;;;;;;;;;18.75;17.50;;;;;20.14;56.86;101371.44;4973324;28;73267;-61
2021/07/22 04:19:44;;;;;;;;;19.75;14.50;;;;;20.12;56.65;101372.66;4973359;28;72888;-61
2021/07/22 04:22:11;;;;;;;;;15.75;15.25;;;;;20.09;56.78;101371.16;4974313;28;45177;-60
2021/07/22 04:24:36;;;;;;;;;18.25;16.00;;;;;20.08;57.40;101371.34;4974454;28;45379;-61
2021/07/22 04:27:02;;;;;;;;;15.75;15.75;;;;;20.07;57.00;101375.03;4974037;28;48644;-61
2021/07/22 04:29:27;;;;;;;;;20.25;15.75;;;;;20.06;57.23;101370.69;4974171;28;45367;-61
2021/07/22 04:31:52;;;;;;;;;13.00;11.50;;;;;20.04;57.31;101375.38;4973352;28;68600;-60
2021/07/22 04:34:18;;;;;;;;;18.00;15.25;;;;;20.04;57.08;101372.72;4974229;28;45412;-61
2021/07/22 04:36:43;;;;;;;;;18.50;17.25;;;;;20.04;57.47;101370.84;4973224;28;75138;-60
2021/07/22 04:39:08;;;;;;;;;19.00;17.00;;;;;20.08;57.25;101376.69;4973499;28;68453;-60
2021/07/22 04:41:36;;;;;;;;;22.00;15.50;;;;;20.06;57.18;101373.34;4974165;28;50149;-60
2021/07/22 04:44:01;;;;;;;;;20.00;17.00;;;;;20.08;57.18;101382.00;4974372;28;45350;-61
2021/07/22 04:46:26;;;;;;;;;19.75;18.25;;;;;20.11;57.20;101387.00;4975353;28;67980;-61
2021/07/22 04:48:52;;;;;;;;;18.25;14.75;;;;;20.13;57.07;101390.31;4974249;28;45293;-60
2021/07/22 04:51:17;;;;;;;;;19.50;17.50;;;;;20.15;57.15;101386.44;4974247;28;45367;-61
2021/07/22 04:53:43;;;;;;;;;15.25;15.25;;;;;20.15;57.13;101390.94;4973361;28;65786;-60
2021/07/22 04:56:08;;;;;;;;;14.75;14.75;;;;;20.14;57.09;101391.94;4973261;28;67137;-61
2021/07/22 04:58:33;;;;;;;;;21.50;16.75;;;;;20.15;56.97;101390.94;4974159;28;45270;-60
2021/07/22 05:00:59;;;;;;;;;19.50;17.00;;;;;20.16;57.16;101390.78;4973699;28;49831;-61
2021/07/22 05:03:24;;;;;;;;;17.75;13.50;;;;;20.19;57.18;101404.78;4973968;28;45508;-60
2021/07/22 05:05:50;;;;;;;;;19.25;16.50;;;;;20.22;57.18;101402.56;4972866;28;71936;-62
2021/07/22 05:08:15;;;;;;;;;16.50;16.25;;;;;20.24;57.32;101400.53;4975111;28;55405;-61
2021/07/22 05:10:40;;;;;;;;;18.25;16.75;;;;;20.28;57.08;101404.50;4976693;28;49129;-60
2021/07/22 05:13:06;;;;;;;;;22.25;17.75;;;;;20.31;57.05;101398.81;4976855;28;45481;-61
2021/07/22 05:15:32;;;;;;;;;20.25;19.25;;;;;20.36;56.92;101408.13;4976595;28;45376;-60
2021/07/22 05:17:57;;;;;;;;;24.25;19.25;;;;;20.37;56.59;101401.78;4976124;28;63375;-60
2021/07/22 05:20:23;;;;;;;;;20.50;18.50;;;;;20.38;56.39;101403.44;4974410;28;64184;-61
2021/07/22 05:22:48;;;;;;;;;21.50;17.50;;;;;20.39;55.90;101400.59;4976328;28;45418;-61
2021/07/22 05:25:13;;;;;;;;;24.00;19.50;;;;;20.45;55.98;101404.38;4976464;28;45420;-60
2021/07/22 05:27:39;;;;;;;;;21.25;17.75;;;;;20.47;56.30;101394.34;4976524;28;45423;-61
2021/07/22 05:30:05;;;;;;;;;19.25;16.00;;;;;20.51;56.36;101403.66;4975978;28;63696;-60
2021/07/22 05:32:30;;;;;;;;;20.50;16.50;;;;;20.55;56.02;101404.13;4976623;28;45379;-62
2021/07/22 05:34:55;;;;;;;;;21.00;18.25;;;;;20.58;55.75;101399.25;4976513;28;45460;-61
2021/07/22 05:37:21;;;;;;;;;18.25;17.25;;;;;20.63;55.61;101400.56;4975126;28;72986;-61
2021/07/22 05:39:46;;;;;;;;;25.50;20.50;;;;;20.66;55.76;101405.53;4976487;28;45282;-61
2021/07/22 05:42:11;;;;;;;;;20.75;19.00;;;;;20.74;54.99;101408.09;4976649;28;45282;-61
2021/07/22 05:44:37;;;;;;;;;20.50;17.75;;;;;20.75;55.55;101404.44;4976397;28;45330;-62
2021/07/22 05:47:02;;;;;;;;;18.25;18.25;;;;;20.78;55.15;101405.94;4976430;28;45251;-62
2021/07/22 05:49:28;;;;;;;;;20.75;19.25;;;;;20.80;54.88;101407.41;4976306;28;45827;-61
2021/07/22 05:51:53;;;;;;;;;22.50;18.75;;;;;20.84;54.83;101403.38;4976537;28;45520;-61
2021/07/22 05:54:18;;;;;;;;;19.25;18.00;;;;;20.89;54.81;101405.50;4975356;28;75541;-60
2021/07/22 05:56:44;;;;;;;;;20.75;18.50;;;;;20.92;54.94;101405.13;4977714;28;45271;-61
2021/07/22 05:59:09;;;;;;;;;21.25;16.75;;;;;20.93;54.32;101401.44;4975567;28;54113;-61
2021/07/22 06:01:35;;;;;;;;;19.25;16.00;;;;;20.96;54.77;101409.06;4975056;28;69801;-60
2021/07/22 06:04:00;;;;;;;;;21.00;16.75;;;;;20.99;54.20;101402.56;4973744;28;75543;-61
2021/07/22 06:06:25;;;;;;;;;19.25;16.25;;;;;21.02;54.26;101410.19;4976158;28;45224;-61
2021/07/22 06:08:51;;;;;;;;;22.00;19.25;;;;;21.07;54.59;101406.97;4975145;28;68294;-61
2021/07/22 06:11:16;;;;;;;;;18.00;15.75;;;;;21.13;54.03;101404.41;4975898;28;50159;-61
2021/07/22 06:13:42;;;;;;;;;22.25;18.50;;;;;21.17;53.94;101411.03;4976200;28;45877;-61
2021/07/22 06:16:11;;;;;;;;;20.75;19.50;;;;;21.24;53.82;101407.59;4975992;28;45333;-61
2021/07/22 06:18:38;;;;;;;;;22.00;19.00;;;;;21.29;53.83;101410.53;4976065;28;45322;-61
2021/07/22 06:21:03;;;;;;;;;22.00;19.75;;;;;21.36;53.89;101406.13;4975939;28;45378;-61
2021/07/22 06:23:28;;;;;;;;;18.00;15.50;;;;;21.40;53.83;101404.72;4975010;28;75210;-61
2021/07/22 06:26:00;;;;;;;;;25.25;20.25;;;;;21.47;53.47;101402.97;4974835;28;72507;-61
2021/07/22 06:28:25;;;;;;;;;24.25;17.50;;;;;21.57;53.22;101396.50;4976065;28;45456;-62
2021/07/22 06:30:51;;;;;;;;;21.00;17.00;;;;;21.65;53.52;101401.78;4974924;28;68735;-61
2021/07/22 06:33:17;;;;;;;;;19.50;17.00;;;;;21.76;53.20;101400.44;4975785;28;45275;-61
2021/07/22 06:35:42;;;;;;;;;23.25;18.75;;;;;21.86;52.61;101400.97;4974898;28;67967;-61
2021/07/22 06:38:07;;;;;;;;;23.50;18.25;;;;;21.96;52.95;101397.97;4974997;28;65374;-60
2021/07/22 06:40:34;;;;;;;;;17.00;15.25;;;;;22.06;52.62;101401.16;4974924;28;69406;-62
2021/07/22 06:42:59;;;;;;;;;19.75;16.75;;;;;22.17;51.61;101397.13;4977271;27;46215;-61
2021/07/22 06:45:25;;;;;;;;;23.25;16.50;;;;;22.27;51.85;101401.34;4974389;28;71919;-61
2021/07/22 06:47:50;;;;;;;;;20.75;17.00;;;;;22.36;51.31;101398.31;4974670;28;66932;-61
2021/07/22 06:50:15;;;;;;;;;22.25;19.75;;;;;22.50;51.27;101409.16;4975536;28;45258;-61
2021/07/22 06:52:41;;;;;;;;;16.75;16.75;;;;;22.63;50.79;101405.75;4975367;28;45871;-61
2021/07/22 06:55:07;;;;;;;;;21.50;19.50;;;;;22.75;50.74;101409.56;4975292;28;45371;-61
2021/07/22 06:57:32;;;;;;;;;21.50;17.50;;;;;22.84;50.99;101404.84;4975609;28;45422;-61
2021/07/22 06:59:58;;;;;;;;;20.25;18.25;;;;;22.94;50.67;101405.34;4975333;28;45469;-61
2021/07/22 07:02:23;;;;;;;;;22.00;20.00;;;;;23.05;50.73;101392.41;4974100;28;75544;-61
2021/07/22 07:04:48;;;;;;;;;18.50;18.25;;;;;23.17;50.15;101398.03;4974488;28;71751;-61
2021/07/22 07:07:16;;;;;;;;;19.00;19.00;;;;;23.29;49.80;101395.66;4974691;28;64612;-62
2021/07/22 07:09:41;;;;;;;;;22.25;18.75;;;;;23.39;49.35;101399.63;4975476;28;45382;-60
2021/07/22 07:12:07;;;;;;;;;26.75;19.75;;;;;23.50;49.44;101400.88;4975022;28;45989;-61
2021/07/22 07:14:33;;;;;;;;;19.75;15.75;;;;;23.60;49.78;101394.31;4974993;28;50385;-61
2021/07/22 07:16:58;;;;;;;;;24.75;24.75;;;;;23.74;49.32;101396.00;4975010;28;45246;-60
2021/07/22 07:19:24;;;;;;;;;19.00;17.75;;;;;23.88;48.51;101401.38;4974903;28;45192;-61
2021/07/22 07:21:49;;;;;;;;;21.75;20.50;;;;;23.97;48.28;101392.09;4973644;28;71782;-61
2021/07/22 07:24:14;;;;;;;;;22.00;18.00;;;;;24.08;47.80;101399.59;4973938;28;73172;-61
2021/07/22 07:26:40;;;;;;;;;21.50;20.75;;;;;24.16;48.11;101398.56;4974458;28;58997;-62
2021/07/22 07:29:05;;;;;;;;;25.75;20.50;;;;;24.25;47.33;101401.88;4975007;28;45608;-62
2021/07/22 07:31:30;;;;;;;;;19.75;19.75;;;;;24.31;47.40;101398.38;4973161;28;70602;-61
2021/07/22 07:33:56;;;;;;;;;24.75;18.50;;;;;24.38;46.69;101392.97;4974188;28;60202;-61
2021/07/22 07:36:21;;;;;;;;;23.75;19.25;;;;;24.45;46.89;101401.88;4973871;28;68272;-61
2021/07/22 07:38:47;;;;;;;;;17.50;17.50;;;;;24.52;46.13;101408.06;4974907;28;45176;-62
2021/07/22 07:41:12;;;;;;;;;22.75;20.25;;;;;24.62;45.82;101399.56;4976813;28;45371;-62
2021/07/22 07:43:37;;;;;;;;;22.75;16.25;;;;;24.70;45.34;101404.72;4991273;28;62936;-61
2021/07/22 07:46:03;;;;;;;;;18.75;16.75;;;;;24.79;44.85;101407.22;4981994;28;60263;-61
2021/07/22 07:48:28;;;;;;;;;25.50;21.00;;;;;24.88;44.10;101401.41;4975330;27;67459;-61
2021/07/22 07:50:53;;;;;;;;;19.25;18.50;;;;;24.97;43.95;101407.38;4975087;28;73462;-60
2021/07/22 07:53:19;;;;;;;;;21.00;16.50;;;;;25.10;44.07;101405.69;4989058;28;71651;-61
2021/07/22 07:55:45;;;;;;;;;23.50;19.50;;;;;25.26;42.71;101404.38;4997466;28;45411;-61
2021/07/22 07:58:10;;;;;;;;;21.00;19.50;;;;;25.39;42.28;101403.53;4985713;28;45401;-61
2021/07/22 08:00:36;;;;;;;;;20.75;18.75;;;;;25.53;41.64;101405.13;4994639;28;46302;-61
2021/07/22 08:03:01;;;;;;;;;20.50;18.00;;;;;25.66;41.26;101406.09;4973634;28;61669;-61
2021/07/22 08:05:27;;;;;;;;;16.00;15.00;;;;;25.78;41.44;101402.50;4971601;28;45499;-61
2021/07/22 08:07:52;;;;;;;;;22.00;18.00;;;;;25.94;41.48;101394.94;4982283;28;45489;-60
2021/07/22 08:10:18;;;;;;;;;20.75;18.00;;;;;26.10;41.42;101398.97;4971989;28;55862;-61
2021/07/22 08:12:43;;;;;;;;;21.00;20.00;;;;;26.22;40.37;101391.84;4986501;27;45356;-60
2021/07/22 08:15:10;;;;;;;;;18.25;16.50;;;;;26.35;40.53;101390.09;4970745;28;65745;-61
2021/07/22 08:17:35;;;;;;;;;17.25;17.25;;;;;26.47;40.04;101398.28;4977853;28;45533;-59
2021/07/22 08:20:05;;;;;;;;;22.00;19.75;;;;;26.63;40.20;101394.16;4970539;28;74438;-61
2021/07/22 08:22:31;;;;;;;;;21.25;19.25;;;;;26.75;39.45;101396.97;4981341;28;46044;-61
2021/07/22 08:24:58;;;;;;;;;23.00;18.00;;;;;26.88;39.31;101398.72;4973887;28;65453;-61
2021/07/22 08:27:26;;;;;;;;;19.50;17.50;;;;;26.99;38.92;101403.38;4972541;28;45553;-60
2021/07/22 08:29:52;;;;;;;;;19.50;18.50;;;;;27.05;38.86;101396.25;4974947;28;45575;-60
2021/07/22 08:32:18;;;;;;;;;21.25;20.00;;;;;27.15;39.32;101401.94;4972708;28;45485;-61
2021/07/22 08:34:43;;;;;;;;;19.75;17.50;;;;;27.22;38.49;101401.84;4972790;28;45455;-60
2021/07/22 08:37:09;;;;;;;;;15.75;15.75;;;;;27.31;37.86;101391.56;4971604;28;70723;-61
2021/07/22 08:39:38;;;;;;;;;18.75;16.25;;;;;27.42;37.79;101400.78;4971857;28;46229;-61
2021/07/22 08:42:07;;;;;;;;;19.50;17.50;;;;;27.54;37.84;101401.69;4972014;28;48623;-61
2021/07/22 08:44:34;;;;;;;;;18.25;16.25;;;;;27.68;37.42;101400.41;4979977;28;45355;-60
2021/07/22 08:47:00;;;;;;;;;18.50;18.25;;;;;27.85;37.47;101399.78;4970063;28;45581;-61
2021/07/22 08:49:25;;;;;;;;;20.50;15.75;;;;;27.97;36.70;101406.03;4968843;28;75566;-61
2021/07/22 08:51:51;;;;;;;;;16.75;14.50;;;;;28.11;36.45;101403.09;4968646;28;68504;-61
2021/07/22 08:54:16;;;;;;;;;15.00;15.00;;;;;28.22;36.49;101394.22;4976065;28;45524;-61
2021/07/22 08:56:41;;;;;;;;;19.50;15.25;;;;;28.36;36.86;101397.50;4974666;28;64535;-64
2021/07/22 08:59:07;;;;;;;;;17.75;13.00;;;;;28.52;36.69;101398.69;4969815;28;73095;-61
2021/07/22 09:01:34;;;;;;;;;15.50;14.00;;;;;28.65;35.11;101394.09;4970360;28;65563;-61
2021/07/22 09:03:59;;;;;;;;;19.50;16.25;;;;;28.77;34.80;101400.34;4955563;28;45667;-60
2021/07/22 09:06:25;;;;;;;;;14.75;12.00;;;;;28.87;34.78;101405.16;4970434;28;45403;-60
2021/07/22 09:08:50;;;;;;;;;14.00;13.25;;;;;28.95;33.75;101412.06;4978994;28;45503;-61
2021/07/22 09:11:16;;;;;;;;;13.50;13.25;;;;;29.01;33.67;101405.72;4979607;28;45494;-61
2021/07/22 09:13:41;;;;;;;;;11.25;11.00;;;;;29.08;33.16;101406.41;4982168;28;45419;-61
2021/07/22 09:16:08;;;;;;;;;12.75;11.25;;;;;29.12;32.85;101407.56;4977523;28;69068;-61
2021/07/22 09:18:38;;;;;;;;;15.00;13.25;;;;;29.17;33.03;101410.34;4971196;28;45525;-62
2021/07/22 09:21:22;;;;;;;;;13.50;11.75;;;;;29.21;32.80;101407.16;4990058;28;45610;-60
2021/07/22 09:24:10;;;;;;;;;14.00;12.00;;;;;29.27;33.00;101414.34;4984550;28;45282;-61
2021/07/22 09:26:37;;;;;;;;;15.00;13.50;;;;;29.33;32.44;101413.38;4977734;28;45384;-60
2021/07/22 09:29:05;;;;;;;;;18.00;13.75;;;;;29.40;32.52;101416.78;4994427;28;45469;-61
2021/07/22 09:31:30;;;;;;;;;14.50;14.25;;;;;29.45;32.29;101414.19;4994403;28;46109;-62
2021/07/22 09:33:55;;;;;;;;;15.25;13.25;;;;;29.50;32.16;101412.63;4989880;28;45448;-61
2021/07/22 09:36:21;;;;;;;;;13.75;13.75;;;;;29.53;31.58;101406.75;4988973;28;68581;-61
2021/07/22 09:38:47;;;;;;;;;14.00;12.25;;;;;29.56;31.71;101403.56;4973036;28;45454;-61
2021/07/22 09:41:22;;;;;;;;;14.00;12.50;;;;;29.63;32.15;101406.09;4977196;28;52037;-62
2021/07/22 09:43:47;;;;;;;;;12.50;11.75;;;;;29.71;32.07;101405.72;4981414;28;45427;-60
2021/07/22 09:46:14;;;;;;;;;15.00;13.75;;;;;29.81;32.34;101411.31;4978667;28;45632;-61
2021/07/22 09:48:39;;;;;;;;;11.75;11.25;;;;;29.94;31.46;101401.22;4984600;28;45411;-62
2021/07/22 09:51:05;;;;;;;;;14.25;13.00;;;;;29.97;30.79;101390.72;4959506;28;70962;-61
2021/07/22 09:53:32;;;;;;;;;15.75;12.75;;;;;30.00;30.89;101400.25;4971966;28;45446;-61
2021/07/22 09:55:57;;;;;;;;;13.00;12.75;;;;;30.04;31.12;101404.09;4974776;28;45476;-61
2021/07/22 09:58:22;;;;;;;;;14.50;11.50;;;;;30.10;30.93;101396.91;4984807;27;45464;-61
2021/07/22 10:00:49;;;;;;;;;18.00;16.00;;;;;30.18;30.54;101396.50;4991565;28;72524;-60
2021/07/22 10:03:16;;;;;;;;;12.00;11.25;;;;;30.29;31.17;101392.84;4985737;28;45473;-61
2021/07/22 10:05:51;;;;;;;;;15.75;13.50;;;;;30.40;30.41;101396.56;4982016;28;45537;-61
2021/07/22 10:08:20;;;;;;;;;14.50;12.50;;;;;30.54;30.20;101388.88;4991959;28;45501;-60
2021/07/22 10:10:52;;;;;;;;;14.00;11.00;;;;;30.67;30.11;101379.56;4974063;28;45585;-60
2021/07/22 10:13:27;;;;;;;;;14.50;11.75;;;;;30.78;29.98;101389.50;4986079;28;45364;-61
2021/07/22 10:15:53;;;;;;;;;14.25;11.00;;;;;30.88;30.44;101374.41;4974108;28;45559;-60
2021/07/22 10:18:20;;;;;;;;;11.25;11.25;;;;;30.99;30.46;101373.47;4971313;28;75396;-61
2021/07/22 10:20:45;;;;;;;;;13.00;12.25;;;;;31.09;29.74;101378.19;4984959;28;45602;-60
2021/07/22 10:23:11;;;;;;;;;15.00;11.75;;;;;31.14;29.71;101372.81;5005356;28;65809;-60
2021/07/22 10:25:36;;;;;;;;;13.50;12.75;;;;;31.18;29.95;101370.44;4980082;28;68102;-60
2021/07/22 10:28:02;;;;;;;;;15.00;13.25;;;;;31.25;29.79;101371.06;4972617;28;58725;-60
2021/07/22 10:30:27;;;;;;;;;17.00;12.00;;;;;31.32;29.30;101370.84;4977474;28;61457;-60
2021/07/22 10:32:58;;;;;;;;;14.00;11.75;;;;;31.40;29.42;101375.81;4963013;28;45372;-60
2021/07/22 10:35:25;;;;;;;;;13.00;13.00;;;;;31.44;28.70;101363.38;4980812;28;45448;-60
2021/07/22 10:38:15;;;;;;;;;15.75;13.50;;;;;31.46;28.92;101360.41;4973760;28;46102;-61
2021/07/22 10:40:59;;;;;;;;;12.75;12.00;;;;;31.48;29.38;101364.50;4975717;28;45477;-60
2021/07/22 10:43:42;;;;;;;;;15.50;13.00;;;;;31.52;28.65;101362.91;4972594;28;45581;-60
2021/07/22 10:46:17;;;;;;;;;14.50;11.00;;;;;31.57;28.42;101355.88;4979632;28;45449;-61
2021/07/22 10:48:46;;;;;;;;;14.75;12.50;;;;;31.59;28.77;101359.16;4972937;28;46372;-61
2021/07/22 10:51:20;;;;;;;;;14.25;12.25;;;;;31.65;28.30;101352.69;4984498;28;45501;-61
2021/07/22 10:53:54;;;;;;;;;14.50;12.00;;;;;31.71;28.78;101354.38;4992715;28;45562;-61
2021/07/22 10:56:23;;;;;;;;;21.75;17.50;;;;;31.83;28.44;101356.94;5014911;28;45450;-60
2021/07/22 10:58:57;;;;;;;;;11.25;11.00;;;;;31.88;28.25;101348.84;4984636;28;46075;-60
2021/07/22 11:01:41;;;;;;;;;15.25;13.75;;;;;31.92;28.20;101351.84;5007003;27;45529;-61
2021/07/22 11:04:07;;;;;;;;;13.25;11.50;;;;;32.00;28.30;101354.06;4990423;28;46386;-60
2021/07/22 11:06:58;;;;;;;;;12.25;10.00;;;;;32.07;28.31;101341.09;4987352;27;45738;-61